Time;durP1;ratioP1;P1;durP2;ratioP2;P2;SDS_P1;SDS_P2;PMS_P1;PMS_P2;Temp;Humidity;BMP_temperature;BMP_pressure;BME280_temperature;BME280_humidity;BME280_pressure;Samples;Min_cycle;Max_cycle;Signal;HPM_P1;HPM_P2
2023/11/19 00:00:33;;;;;;;3.40;2.30;;;;;;;1.51;75.52;99263.29;78796;1294;3026783;-78
2023/11/19 00:02:59;;;;;;;3.20;2.10;;;;;;;1.56;75.47;99261.27;80046;1295;3012853;-78
2023/11/19 00:05:27;;;;;;;4.60;2.50;;;;;;;1.52;75.41;99262.59;80073;1289;3011579;-79
2023/11/19 00:07:55;;;;;;;4.00;2.30;;;;;;;1.60;75.30;99259.94;78808;1294;3057020;-77
2023/11/19 00:10:22;;;;;;;4.30;2.70;;;;;;;1.61;75.21;99248.52;80004;1290;3013550;-77
2023/11/19 00:12:48;;;;;;;4.90;2.10;;;;;;;1.58;75.07;99246.36;79998;1295;3013037;-77
2023/11/19 00:15:18;;;;;;;2.80;1.90;;;;;;;1.60;75.17;99240.95;78758;1293;3025806;-78
2023/11/19 00:17:45;;;;;;;3.60;2.30;;;;;;;1.56;75.07;99234.33;80042;1295;3013376;-77
2023/11/19 00:20:15;;;;;;;3.10;2.20;;;;;;;1.51;75.24;99234.65;79532;1289;3013564;-78
2023/11/19 00:22:48;;;;;;;3.10;2.20;;;;;;;1.48;75.61;99225.91;80178;1289;3011733;-78
2023/11/19 00:25:17;;;;;;;4.00;2.20;;;;;;;1.45;75.81;99225.64;78822;1289;3055699;-76
2023/11/19 00:27:46;;;;;;;4.80;2.30;;;;;;;1.46;75.62;99216.45;80025;1292;3013512;-75
2023/11/19 00:30:15;;;;;;;3.60;2.10;;;;;;;1.52;75.77;99217.17;79315;1293;3011896;-73
2023/11/19 00:32:42;;;;;;;3.90;2.40;;;;;;;1.50;75.64;99211.02;79840;1295;3013581;-73
2023/11/19 00:35:10;;;;;;;4.80;2.50;;;;;;;1.39;76.22;99205.96;79973;1294;3011638;-75
2023/11/19 00:37:38;;;;;;;3.40;2.00;;;;;;;1.33;76.98;99200.27;78695;1291;3068054;-72
2023/11/19 00:40:06;;;;;;;5.00;2.90;;;;;;;1.26;76.95;99203.22;79991;1291;3012682;-71
2023/11/19 00:42:32;;;;;;;4.10;2.30;;;;;;;1.36;77.22;99206.05;79897;1291;3013563;-76
2023/11/19 00:45:01;;;;;;;3.90;2.40;;;;;;;1.48;76.47;99197.42;78567;1295;3052274;-71
2023/11/19 00:47:28;;;;;;;3.40;2.20;;;;;;;1.44;76.55;99200.11;79887;1294;3013687;-75
2023/11/19 00:49:54;;;;;;;4.40;2.40;;;;;;;1.40;76.65;99200.77;79977;1295;3011863;-70
2023/11/19 00:52:22;;;;;;;4.80;2.80;;;;;;;1.28;77.35;99191.41;78740;1289;3067738;-73
2023/11/19 00:54:49;;;;;;;3.20;2.00;;;;;;;1.38;77.39;99186.13;79903;1289;3019155;-78
2023/11/19 00:57:15;;;;;;;3.00;1.90;;;;;;;2.05;76.58;99177.83;79856;1292;3011722;-72
2023/11/19 00:59:44;;;;;;;3.00;2.10;;;;;;;2.77;74.11;99167.61;78519;1291;3026704;-73
2023/11/19 01:02:10;;;;;;;4.60;2.10;;;;;;;2.83;72.80;99173.43;79922;1295;3013697;-76
2023/11/19 01:04:38;;;;;;;3.10;2.30;;;;;;;2.64;72.76;99174.77;79916;1294;3011785;-73
2023/11/19 01:07:06;;;;;;;4.00;2.50;;;;;;;2.63;73.16;99168.58;78757;1292;3026120;-74
2023/11/19 01:09:34;;;;;;;3.40;2.10;;;;;;;2.45;73.21;99163.79;79963;1289;3012757;-74
2023/11/19 01:12:02;;;;;;;4.10;2.40;;;;;;;2.37;73.50;99172.70;79790;1289;3011662;-70
2023/11/19 01:14:30;;;;;;;5.80;2.60;;;;;;;2.18;73.90;99177.59;78829;1289;3053130;-76
2023/11/19 01:16:57;;;;;;;4.40;2.50;;;;;;;1.89;74.81;99169.48;79837;1294;3014974;-74
2023/11/19 01:19:24;;;;;;;4.50;2.40;;;;;;;1.79;75.36;99179.48;79857;1295;3012280;-72
2023/11/19 01:21:52;;;;;;;3.80;2.70;;;;;;;1.76;75.36;99181.64;78637;1292;3067912;-76
2023/11/19 01:24:18;;;;;;;3.70;2.70;;;;;;;1.73;75.80;99183.42;79763;1294;3015049;-72
2023/11/19 01:26:45;;;;;;;5.50;3.20;;;;;;;1.72;76.07;99189.34;79920;1289;3014030;-75
2023/11/19 01:29:14;;;;;;;4.20;2.90;;;;;;;1.57;76.41;99182.67;78611;1294;3053707;-78
2023/11/19 01:31:45;;;;;;;4.90;2.60;;;;;;;1.56;76.73;99180.30;80020;1295;3013548;-73
2023/11/19 01:34:13;;;;;;;4.50;2.60;;;;;;;1.49;77.14;99181.36;78652;1295;3051191;-77
2023/11/19 01:36:40;;;;;;;4.00;2.50;;;;;;;1.58;76.92;99182.65;79887;1294;3019587;-80
2023/11/19 01:39:06;;;;;;;4.30;2.60;;;;;;;1.49;77.23;99181.02;79830;1291;3011553;-81
2023/11/19 01:41:35;;;;;;;3.70;2.70;;;;;;;1.58;76.93;99183.35;78823;1294;3027778;-76
2023/11/19 01:44:02;;;;;;;5.30;3.00;;;;;;;1.51;77.38;99183.38;80127;1291;3013179;-80
2023/11/19 01:46:32;;;;;;;4.10;2.90;;;;;;;1.53;77.60;99177.95;79874;1291;3011377;-77
2023/11/19 01:49:00;;;;;;;5.50;3.00;;;;;;;1.54;77.51;99181.38;78724;1295;3051726;-77
2023/11/19 01:51:27;;;;;;;5.80;2.90;;;;;;;1.43;77.88;99175.81;79855;1295;3013240;-75
2023/11/19 01:53:54;;;;;;;4.20;2.70;;;;;;;1.42;78.31;99177.05;79904;1293;3011933;-77
2023/11/19 01:56:22;;;;;;;4.00;2.70;;;;;;;2.02;77.44;99167.04;78689;1292;3049210;-79
2023/11/19 01:58:49;;;;;;;4.70;2.40;;;;;;;2.50;75.62;99160.52;79868;1292;3013288;-79
2023/11/19 02:01:16;;;;;;;4.20;2.60;;;;;;;2.75;74.68;99150.73;79879;1296;3013217;-80
2023/11/19 02:03:46;;;;;;;3.30;2.50;;;;;;;2.57;74.60;99153.02;78836;1295;3051978;-77
2023/11/19 02:06:13;;;;;;;3.30;2.20;;;;;;;2.50;74.92;99140.29;80115;1291;3013144;-76
2023/11/19 02:08:40;;;;;;;4.20;2.70;;;;;;;2.11;75.82;99143.77;79944;1291;3012953;-77
2023/11/19 02:11:08;;;;;;;3.90;2.60;;;;;;;2.02;76.29;99140.45;78772;1289;3048800;-79
2023/11/19 02:13:36;;;;;;;4.60;2.80;;;;;;;1.88;76.57;99134.63;80144;1291;3013651;-77
2023/11/19 02:16:03;;;;;;;5.80;3.50;;;;;;;1.75;77.26;99130.20;79946;1291;3011579;-78
2023/11/19 02:18:32;;;;;;;6.00;3.20;;;;;;;1.64;77.94;99133.11;78859;1290;3051146;-76
2023/11/19 02:20:59;;;;;;;4.40;2.90;;;;;;;1.59;78.24;99133.59;79962;1291;3013026;-75
2023/11/19 02:23:28;;;;;;;6.00;3.60;;;;;;;1.62;78.19;99134.18;80021;1294;3013189;-76
2023/11/19 02:26:05;;;;;;;4.80;3.10;;;;;;;1.62;77.97;99121.59;79251;1295;3048872;-78
2023/11/19 02:28:33;;;;;;;5.30;3.60;;;;;;;1.53;78.34;99123.22;79426;1290;3053230;-77
2023/11/19 02:31:00;;;;;;;6.90;3.60;;;;;;;1.48;78.81;99119.08;80226;1297;3012990;-76
2023/11/19 02:33:29;;;;;;;5.60;3.50;;;;;;;1.50;78.73;99125.05;80375;1297;3011597;-76
2023/11/19 02:35:57;;;;;;;7.40;4.10;;;;;;;1.48;78.92;99115.80;79675;1291;3068494;-79
2023/11/19 02:38:24;;;;;;;5.90;3.00;;;;;;;1.42;79.18;99106.46;80339;1294;3019196;-78
2023/11/19 02:40:51;;;;;;;5.30;3.10;;;;;;;1.49;79.37;99111.62;80009;1295;3011879;-76
2023/11/19 02:43:19;;;;;;;4.60;2.60;;;;;;;2.04;78.60;99097.86;79084;1289;3053431;-75
2023/11/19 02:45:46;;;;;;;4.20;3.10;;;;;;;2.45;76.35;99097.76;80528;1294;3013347;-76
2023/11/19 02:48:15;;;;;;;6.10;3.50;;;;;;;2.45;75.99;99100.16;80195;1290;3011439;-76
2023/11/19 02:50:43;;;;;;;4.10;2.70;;;;;;;2.57;75.72;99099.27;79039;1294;3068605;-78
2023/11/19 02:53:10;;;;;;;7.20;3.30;;;;;;;2.47;75.81;99100.44;79922;1294;3018720;-80
2023/11/19 02:55:37;;;;;;;5.60;3.10;;;;;;;2.19;76.42;99101.71;79622;1290;3011650;-80
2023/11/19 02:58:19;;;;;;;5.20;3.20;;;;;;;2.10;76.52;99107.35;78657;1289;3052765;-74
2023/11/19 03:01:30;;;;;;;5.10;3.10;;;;;;;1.91;77.11;99098.09;78755;1289;3049681;-80
2023/11/19 03:03:40;;;;;;;5.70;3.60;;;;;;;1.85;77.74;99105.39;78754;1290;3053419;-78
2023/11/19 03:06:09;;;;;;;5.20;3.40;;;;;;;1.87;77.44;99092.00;79839;1294;3013458;-75
2023/11/19 03:08:37;;;;;;;7.50;3.30;;;;;;;1.66;78.28;99089.69;79034;1295;3026085;-80
2023/11/19 03:11:04;;;;;;;5.90;3.30;;;;;;;1.77;77.85;99096.45;80036;1289;3013798;-78
2023/11/19 03:16:30;;;;;;;4.10;3.00;;;;;;;1.66;78.55;99095.55;80376;1296;3013312;-78
2023/11/19 03:18:56;;;;;;;5.00;2.40;;;;;;;2.10;78.86;99095.08;79428;1301;3013375;-79
2023/11/19 03:21:28;;;;;;;4.50;3.00;;;;;;;2.60;76.64;99102.10;79500;1301;3012160;-76
2023/11/19 03:23:56;;;;;;;5.10;3.40;;;;;;;2.66;76.03;99096.90;78465;1299;3052707;-79
2023/11/19 03:26:22;;;;;;;4.30;3.10;;;;;;;2.73;75.84;99100.64;79512;1302;3011563;-78
2023/11/19 03:28:51;;;;;;;4.70;3.10;;;;;;;2.53;75.74;99104.23;77266;1299;3388222;-78
2023/11/19 03:31:20;;;;;;;4.80;3.20;;;;;;;2.47;76.21;99103.24;78552;1295;3049007;-81
2023/11/19 03:33:46;;;;;;;5.20;3.20;;;;;;;2.18;76.76;99104.15;79785;1296;3013558;-76
2023/11/19 03:36:14;;;;;;;6.20;3.20;;;;;;;2.07;77.06;99105.02;79674;1299;3011758;-78
2023/11/19 03:38:42;;;;;;;4.80;3.20;;;;;;;2.03;77.34;99102.89;78571;1298;3051817;-77
2023/11/19 03:41:13;;;;;;;6.90;3.30;;;;;;;1.90;77.94;99115.58;79750;1301;3013179;-81
2023/11/19 03:43:42;;;;;;;6.80;3.40;;;;;;;1.76;78.98;99112.37;78498;1300;3056065;-78
2023/11/19 03:46:18;;;;;;;6.10;3.60;;;;;;;1.74;79.06;99119.16;79558;1295;3013599;-76
2023/11/19 03:48:47;;;;;;;6.20;3.50;;;;;;;1.82;78.43;99116.67;78315;1300;3048922;-76
2023/11/19 03:51:15;;;;;;;6.90;4.30;;;;;;;1.76;78.61;99111.70;79601;1299;3012790;-77
2023/11/19 03:53:43;;;;;;;6.30;3.80;;;;;;;1.68;79.32;99119.68;79722;1295;3011532;-75
2023/11/19 03:56:11;;;;;;;8.20;3.00;;;;;;;1.68;79.66;99115.52;78434;1296;3050374;-80
2023/11/19 03:58:38;;;;;;;5.80;3.40;;;;;;;2.16;78.94;99123.40;79816;1295;3013587;-76
2023/11/19 04:01:05;;;;;;;6.50;3.60;;;;;;;2.82;77.11;99116.23;79584;1296;3011637;-79
2023/11/19 04:03:33;;;;;;;6.30;3.80;;;;;;;3.13;76.02;99115.48;78559;1296;3049365;-80
2023/11/19 04:06:00;;;;;;;6.30;3.30;;;;;;;2.97;75.46;99115.19;79695;1298;3013383;-77
2023/11/19 04:08:27;;;;;;;5.70;3.70;;;;;;;2.81;75.83;99120.23;79844;1298;3011915;-79
2023/11/19 04:10:55;;;;;;;5.50;3.70;;;;;;;2.64;76.48;99112.34;78322;1299;3026594;-79
2023/11/19 04:13:23;;;;;;;6.00;3.50;;;;;;;2.39;76.96;99104.35;79685;1295;3012968;-78
2023/11/19 04:15:50;;;;;;;5.20;3.40;;;;;;;2.40;76.90;99096.38;79746;1300;3011845;-81
2023/11/19 04:18:17;;;;;;;5.80;3.80;;;;;;;2.23;77.71;99107.64;78484;1298;3049639;-78
2023/11/19 04:20:45;;;;;;;4.70;3.50;;;;;;;2.14;78.22;99101.52;79695;1300;3013467;-76
2023/11/19 04:23:12;;;;;;;6.20;3.50;;;;;;;2.02;78.55;99100.70;79597;1298;3011944;-76
2023/11/19 04:25:40;;;;;;;5.60;3.90;;;;;;;1.96;78.66;99105.02;78360;1298;3050812;-75
2023/11/19 04:28:06;;;;;;;7.10;4.60;;;;;;;1.79;79.95;99093.11;79613;1298;3018355;-80
2023/11/19 04:30:35;;;;;;;7.60;4.10;;;;;;;1.82;79.65;99088.87;79691;1295;3012664;-78
2023/11/19 04:33:05;;;;;;;6.90;4.30;;;;;;;1.85;79.63;99082.73;78308;1300;3049392;-77
2023/11/19 04:35:32;;;;;;;6.00;3.00;;;;;;;1.74;80.62;99072.00;79487;1297;3013354;-76
2023/11/19 04:37:59;;;;;;;7.70;3.60;;;;;;;2.31;79.60;99061.73;79595;1300;3013488;-75
2023/11/19 04:40:27;;;;;;;5.10;3.10;;;;;;;2.97;78.08;99058.26;78292;1300;3050279;-78
2023/11/19 04:42:53;;;;;;;5.70;3.70;;;;;;;3.14;76.70;99064.20;79674;1295;3012943;-75
2023/11/19 04:45:20;;;;;;;6.50;3.80;;;;;;;2.73;77.04;99069.99;79754;1295;3011428;-76
2023/11/19 04:47:48;;;;;;;5.90;3.80;;;;;;;2.67;77.62;99065.38;78284;1300;3026579;-79
2023/11/19 04:50:16;;;;;;;8.70;4.10;;;;;;;2.53;78.06;99061.02;79502;1301;3018724;-77
2023/11/19 04:52:45;;;;;;;7.40;3.90;;;;;;;2.52;77.92;99066.56;79533;1296;3011957;-76
2023/11/19 04:55:14;;;;;;;7.90;4.70;;;;;;;2.34;78.51;99060.78;78289;1296;3050084;-76
2023/11/19 04:57:40;;;;;;;7.40;4.50;;;;;;;2.26;78.94;99063.80;79651;1297;3012896;-78
2023/11/19 05:00:10;;;;;;;8.00;5.10;;;;;;;2.23;79.23;99063.06;79579;1296;3014069;-75
2023/11/19 05:02:38;;;;;;;9.10;4.90;;;;;;;1.98;80.19;99060.91;78329;1300;3050021;-78
2023/11/19 05:05:05;;;;;;;8.40;4.80;;;;;;;1.88;81.24;99063.80;79506;1300;3012969;-80
2023/11/19 05:07:32;;;;;;;7.50;4.50;;;;;;;1.82;81.60;99059.34;79668;1300;3013458;-77
2023/11/19 05:10:00;;;;;;;4.90;3.10;;;;;;;1.85;81.82;99063.92;78265;1301;3026225;-78
2023/11/19 05:12:27;;;;;;;7.10;4.20;;;;;;;2.18;81.35;99057.15;79633;1295;3013354;-73
2023/11/19 05:14:53;;;;;;;6.10;3.60;;;;;;;3.00;79.78;99053.81;79542;1300;3011665;-79
2023/11/19 05:17:21;;;;;;;6.50;4.20;;;;;;;2.92;78.30;99055.86;78289;1295;3027574;-79
2023/11/19 05:19:48;;;;;;;9.80;4.60;;;;;;;3.01;78.32;99054.50;79540;1295;3018919;-76
2023/11/19 05:22:14;;;;;;;8.60;4.80;;;;;;;2.76;78.49;99052.44;79540;1297;3013657;-79
2023/11/19 05:24:42;;;;;;;6.90;4.20;;;;;;;2.57;79.28;99046.52;78265;1297;3025241;-75
2023/11/19 05:27:11;;;;;;;11.40;5.20;;;;;;;2.40;79.77;99044.34;79617;1295;3018318;-77
2023/11/19 05:29:39;;;;;;;8.50;4.60;;;;;;;2.37;80.12;99031.82;79580;1295;3012750;-74
2023/11/19 05:32:07;;;;;;;10.20;5.50;;;;;;;2.18;80.55;99025.21;78383;1300;3050122;-79
2023/11/19 05:34:33;;;;;;;11.30;6.40;;;;;;;2.08;81.12;99024.65;79502;1298;3013328;-77
2023/11/19 05:37:00;;;;;;;10.10;5.60;;;;;;;2.03;81.25;99019.98;79582;1301;3013705;-71
2023/11/19 05:39:28;;;;;;;7.10;4.50;;;;;;;1.93;82.03;99023.26;78058;1296;3026550;-71
2023/11/19 05:41:54;;;;;;;9.20;5.20;;;;;;;2.48;81.85;99019.67;79566;1295;3018739;-74
2023/11/19 05:44:21;;;;;;;12.00;5.00;;;;;;;2.93;79.87;99028.63;79575;1295;3012776;-75
2023/11/19 05:46:50;;;;;;;9.50;5.20;;;;;;;3.17;79.02;99030.03;78249;1298;3049752;-71
2023/11/19 05:49:16;;;;;;;9.70;5.40;;;;;;;3.17;78.72;99025.67;79464;1300;3019327;-75
2023/11/19 05:51:43;;;;;;;10.50;6.00;;;;;;;2.93;78.80;99022.91;79554;1295;3011216;-72
2023/11/19 05:54:11;;;;;;;11.10;5.90;;;;;;;2.61;79.68;99026.66;78296;1296;3026240;-73
2023/11/19 05:56:38;;;;;;;10.10;6.10;;;;;;;2.44;80.70;99033.13;79738;1295;3013965;-71
2023/11/19 05:59:07;;;;;;;11.30;6.00;;;;;;;2.34;81.46;99030.70;79564;1295;3011957;-75
2023/11/19 06:01:35;;;;;;;12.40;5.90;;;;;;;2.28;81.81;99022.94;78317;1300;3049577;-73
2023/11/19 06:04:02;;;;;;;11.90;6.10;;;;;;;2.11;82.70;99033.36;79472;1301;3012931;-73
2023/11/19 06:06:29;;;;;;;9.60;5.90;;;;;;;2.00;83.74;99033.56;79449;1301;3013992;-71
2023/11/19 06:08:57;;;;;;;8.60;4.30;;;;;;;2.02;84.05;99032.10;78377;1300;3027204;-74
2023/11/19 06:11:26;;;;;;;10.20;5.00;;;;;;;2.63;82.63;99035.08;79684;1298;3013060;-71
2023/11/19 06:13:57;;;;;;;8.10;5.20;;;;;;;3.17;80.27;99039.53;78984;1296;3011662;-78
2023/11/19 06:16:24;;;;;;;8.00;5.20;;;;;;;3.46;79.38;99043.66;79578;1296;3013728;-73
2023/11/19 06:18:50;;;;;;;10.30;5.90;;;;;;;3.32;78.83;99051.78;79745;1298;3014191;-72
2023/11/19 06:21:18;;;;;;;9.10;5.40;;;;;;;3.11;79.20;99054.13;78336;1296;3052468;-70
2023/11/19 06:23:45;;;;;;;10.00;6.10;;;;;;;3.01;79.67;99056.37;79844;1298;3013595;-71
2023/11/19 06:26:11;;;;;;;10.80;5.90;;;;;;;2.94;79.87;99054.05;79611;1296;3012025;-73
2023/11/19 06:28:40;;;;;;;11.50;5.40;;;;;;;2.83;79.81;99054.08;78395;1298;3028757;-69
2023/11/19 06:31:07;;;;;;;10.80;6.10;;;;;;;2.62;80.78;99054.16;79704;1296;3018860;-72
2023/11/19 06:33:34;;;;;;;10.90;5.80;;;;;;;2.51;81.58;99056.23;79539;1298;3012387;-68
2023/11/19 06:36:01;;;;;;;9.70;5.40;;;;;;;2.51;81.49;99056.05;78296;1295;3026093;-69
2023/11/19 06:38:28;;;;;;;8.70;5.20;;;;;;;2.55;81.03;99056.81;79706;1298;3013376;-67
2023/11/19 06:40:55;;;;;;;9.20;4.90;;;;;;;2.46;81.35;99056.91;79635;1295;3011789;-69
2023/11/19 06:43:23;;;;;;;8.60;4.70;;;;;;;2.74;81.86;99057.15;78317;1295;3026078;-69
2023/11/19 06:45:50;;;;;;;9.60;5.30;;;;;;;3.52;79.96;99061.23;79581;1298;3013513;-68
2023/11/19 06:48:17;;;;;;;8.70;4.50;;;;;;;3.45;78.63;99063.62;79589;1298;3011628;-69
2023/11/19 06:50:45;;;;;;;8.70;4.60;;;;;;;3.44;78.94;99063.64;78333;1298;3026007;-68
2023/11/19 06:53:11;;;;;;;8.70;5.80;;;;;;;3.46;78.85;99058.19;79598;1295;3018780;-70
2023/11/19 06:55:38;;;;;;;10.00;5.40;;;;;;;3.22;78.84;99062.90;79553;1296;3011769;-76
2023/11/19 06:58:09;;;;;;;9.60;5.70;;;;;;;3.11;79.43;99057.93;78436;1295;3048885;-76
2023/11/19 07:00:36;;;;;;;10.70;5.60;;;;;;;2.97;79.82;99052.71;79726;1296;3018660;-70
2023/11/19 07:03:03;;;;;;;11.70;6.10;;;;;;;2.78;80.51;99053.61;79574;1298;3013984;-79
2023/11/19 07:05:31;;;;;;;9.40;5.90;;;;;;;2.73;81.00;99063.60;78447;1298;3053171;-70
2023/11/19 07:07:58;;;;;;;7.50;4.80;;;;;;;2.80;80.88;99063.38;79859;1295;3012939;-70
2023/11/19 07:10:25;;;;;;;8.40;5.00;;;;;;;2.75;80.52;99054.89;79642;1295;3011591;-79
2023/11/19 07:12:54;;;;;;;7.30;3.90;;;;;;;2.67;81.16;99052.92;78328;1294;3048736;-75
2023/11/19 07:15:20;;;;;;;7.50;4.40;;;;;;;3.16;80.78;99058.27;79701;1295;3013510;-76
2023/11/19 07:17:48;;;;;;;9.50;4.70;;;;;;;3.80;79.14;99052.02;79490;1301;3013317;-72
2023/11/19 07:20:16;;;;;;;6.90;4.50;;;;;;;3.97;77.99;99050.14;78622;1295;3051958;-74
2023/11/19 07:22:45;;;;;;;7.70;4.80;;;;;;;3.81;78.11;99047.84;79880;1296;3014047;-72
2023/11/19 07:25:14;;;;;;;8.80;5.60;;;;;;;3.52;78.57;99048.27;79335;1294;3011837;-74
2023/11/19 07:27:42;;;;;;;9.70;5.20;;;;;;;3.47;79.20;99053.48;79663;1298;3012810;-76
2023/11/19 07:30:09;;;;;;;9.10;5.00;;;;;;;3.32;79.41;99053.20;79659;1295;3011598;-74
2023/11/19 07:32:38;;;;;;;9.90;5.00;;;;;;;3.31;79.58;99059.45;78800;1295;3049711;-71
2023/11/19 07:35:06;;;;;;;6.90;4.90;;;;;;;3.18;80.04;99057.86;79608;1298;3013150;-77
2023/11/19 07:37:33;;;;;;;6.60;4.50;;;;;;;3.11;80.44;99054.14;79712;1298;3011909;-74
2023/11/19 07:40:01;;;;;;;8.90;5.30;;;;;;;2.94;81.37;99059.23;78431;1295;3051188;-73
2023/11/19 07:42:28;;;;;;;8.80;5.30;;;;;;;2.95;81.34;99062.50;79713;1295;3020636;-74
2023/11/19 07:44:57;;;;;;;8.20;4.40;;;;;;;2.86;82.33;99069.21;79714;1296;3011771;-72
2023/11/19 07:47:24;;;;;;;7.70;3.80;;;;;;;3.36;81.94;99062.35;78743;1298;3049071;-74
2023/11/19 07:49:51;;;;;;;9.50;5.10;;;;;;;4.03;79.25;99066.57;79831;1298;3018305;-75
2023/11/19 07:52:18;;;;;;;9.20;5.20;;;;;;;4.01;78.78;99062.30;79694;1295;3013084;-71
2023/11/19 07:54:46;;;;;;;9.20;5.00;;;;;;;3.94;78.57;99062.55;78361;1295;3026496;-75
2023/11/19 07:57:12;;;;;;;10.10;5.50;;;;;;;3.75;79.09;99059.83;79690;1295;3013730;-71
2023/11/19 07:59:39;;;;;;;9.20;5.10;;;;;;;3.62;79.65;99061.23;79749;1295;3011642;-76
2023/11/19 08:02:07;;;;;;;9.90;6.00;;;;;;;3.58;79.87;99064.35;78568;1295;3025775;-78
2023/11/19 08:04:34;;;;;;;10.00;6.00;;;;;;;3.50;80.00;99057.33;79922;1298;3013019;-74
2023/11/19 08:07:01;;;;;;;9.70;6.10;;;;;;;3.44;80.18;99047.53;79569;1295;3013851;-73
2023/11/19 08:09:29;;;;;;;9.10;5.70;;;;;;;3.43;80.19;99040.46;78456;1295;3052813;-77
2023/11/19 08:11:56;;;;;;;10.40;6.00;;;;;;;3.34;80.51;99035.25;79578;1295;3013151;-76
2023/11/19 08:14:23;;;;;;;8.50;5.60;;;;;;;3.33;80.66;99033.74;79551;1298;3011420;-72
2023/11/19 08:16:51;;;;;;;7.20;4.60;;;;;;;3.25;80.92;99033.88;78435;1298;3026255;-73
2023/11/19 08:19:18;;;;;;;8.10;5.10;;;;;;;3.79;80.55;99029.55;79908;1295;3013514;-71
2023/11/19 08:21:44;;;;;;;8.40;5.00;;;;;;;4.47;78.64;99028.15;79730;1296;3011495;-75
2023/11/19 08:24:12;;;;;;;8.70;4.90;;;;;;;4.56;77.57;99020.99;78527;1296;3027612;-72
2023/11/19 08:26:39;;;;;;;8.30;4.90;;;;;;;4.40;77.58;99017.87;79631;1296;3018806;-77
2023/11/19 08:29:05;;;;;;;9.20;5.70;;;;;;;4.19;77.98;99019.61;79614;1298;3011781;-75
2023/11/19 08:31:35;;;;;;;9.60;5.50;;;;;;;3.99;78.74;99020.80;78376;1298;3050205;-75
2023/11/19 08:34:02;;;;;;;9.00;6.10;;;;;;;3.83;79.32;99018.83;79695;1298;3012905;-76
2023/11/19 08:36:31;;;;;;;9.10;5.60;;;;;;;3.73;80.00;99017.50;79842;1295;3013614;-71
2023/11/19 08:38:59;;;;;;;11.50;6.40;;;;;;;3.61;80.45;99016.08;78319;1298;3050971;-74
2023/11/19 08:41:26;;;;;;;11.20;6.50;;;;;;;3.68;79.85;99001.05;79471;1298;3013663;-69
2023/11/19 08:43:54;;;;;;;11.80;6.60;;;;;;;3.56;80.21;98981.08;79678;1295;3011922;-72
2023/11/19 08:46:22;;;;;;;11.10;6.50;;;;;;;3.39;81.21;98972.06;78188;1298;3051623;-74
2023/11/19 08:48:48;;;;;;;8.70;4.90;;;;;;;3.34;81.81;98967.23;79640;1300;3012733;-71
2023/11/19 08:51:15;;;;;;;10.50;5.30;;;;;;;3.86;80.90;98963.43;79591;1298;3011622;-70
2023/11/19 08:53:43;;;;;;;9.90;5.30;;;;;;;4.48;78.86;98960.84;78387;1295;3028224;-72
2023/11/19 08:56:10;;;;;;;8.60;6.00;;;;;;;4.60;78.05;98945.76;79623;1295;3013599;-73
2023/11/19 08:58:37;;;;;;;13.40;6.00;;;;;;;4.52;77.90;98936.39;79568;1298;3013088;-71
2023/11/19 09:01:05;;;;;;;10.60;6.10;;;;;;;4.26;78.19;98938.01;78467;1298;3026751;-71
2023/11/19 09:03:32;;;;;;;13.00;6.60;;;;;;;4.07;78.94;98930.52;79747;1295;3012796;-75
2023/11/19 09:05:59;;;;;;;11.30;6.80;;;;;;;3.98;79.36;98933.30;79543;1296;3011803;-74
2023/11/19 09:08:29;;;;;;;10.50;6.20;;;;;;;3.88;79.30;98920.59;78234;1297;3051214;-71
2023/11/19 09:10:56;;;;;;;10.90;6.40;;;;;;;3.63;80.26;98910.70;79581;1294;3011429;-66
2023/11/19 09:13:23;;;;;;;10.40;6.20;;;;;;;3.53;80.86;98903.98;79764;1295;3013525;-70
2023/11/19 09:15:50;;;;;;;11.80;6.40;;;;;;;3.49;81.46;98901.39;78392;1295;3050643;-73
2023/11/19 09:18:17;;;;;;;8.20;5.80;;;;;;;3.42;81.67;98897.48;79612;1298;3013637;-70
2023/11/19 09:20:45;;;;;;;8.90;5.20;;;;;;;3.33;82.19;98899.58;79505;1298;3011386;-68
2023/11/19 09:23:13;;;;;;;8.20;4.80;;;;;;;3.83;81.70;98894.41;78441;1295;3051809;-69
2023/11/19 09:25:39;;;;;;;9.50;5.30;;;;;;;4.53;79.58;98883.58;79692;1296;3018659;-74
2023/11/19 09:28:08;;;;;;;9.80;5.90;;;;;;;4.67;78.11;98884.72;79688;1294;3011644;-70
2023/11/19 09:30:36;;;;;;;9.50;6.50;;;;;;;4.49;78.07;98884.63;78402;1298;3049111;-72
2023/11/19 09:33:03;;;;;;;9.60;5.60;;;;;;;4.28;78.36;98891.98;79601;1298;3013703;-74
2023/11/19 09:35:30;;;;;;;10.20;5.80;;;;;;;4.14;79.01;98890.17;79550;1295;3011904;-74
2023/11/19 09:37:59;;;;;;;9.40;5.70;;;;;;;3.97;79.67;98891.23;78356;1296;3025931;-75
2023/11/19 09:40:25;;;;;;;11.00;6.10;;;;;;;3.87;80.22;98881.63;79655;1295;3013102;-72
2023/11/19 09:42:52;;;;;;;10.10;6.30;;;;;;;3.74;80.67;98870.04;79648;1295;3012750;-74
2023/11/19 09:45:20;;;;;;;12.90;6.80;;;;;;;3.72;80.70;98868.55;78425;1295;3049345;-72
2023/11/19 09:47:47;;;;;;;10.50;6.50;;;;;;;3.67;80.97;98866.69;79610;1298;3012745;-71
2023/11/19 09:50:21;;;;;;;10.80;6.00;;;;;;;3.54;81.61;98865.16;79722;1298;3011666;-72
2023/11/19 09:52:48;;;;;;;7.80;5.30;;;;;;;3.50;82.08;98865.98;78538;1298;3051226;-71
2023/11/19 09:55:15;;;;;;;7.60;4.80;;;;;;;3.98;81.68;98856.69;80096;1295;3013115;-69
2023/11/19 09:57:43;;;;;;;9.20;5.30;;;;;;;4.60;79.28;98851.70;79767;1296;3011814;-68
2023/11/19 10:00:15;;;;;;;9.00;5.20;;;;;;;4.85;78.23;98848.51;78449;1301;3050610;-72
2023/11/19 10:02:41;;;;;;;8.40;5.10;;;;;;;4.76;77.93;98850.80;79790;1295;3013272;-76
2023/11/19 10:05:13;;;;;;;8.10;5.10;;;;;;;4.46;78.39;98845.08;78455;1300;3026045;-75
2023/11/19 10:07:40;;;;;;;9.20;5.30;;;;;;;4.32;78.79;98841.53;79505;1296;3013110;-68
2023/11/19 10:10:08;;;;;;;8.30;5.20;;;;;;;4.24;78.96;98836.85;78535;1296;3026071;-69
2023/11/19 10:12:35;;;;;;;9.60;5.10;;;;;;;3.93;80.08;98835.78;79789;1295;3013660;-70
2023/11/19 10:15:02;;;;;;;7.30;4.50;;;;;;;3.84;80.48;98839.63;79460;1296;3011673;-68
2023/11/19 10:17:34;;;;;;;11.50;5.10;;;;;;;3.80;80.71;98840.14;78418;1298;3049501;-68
2023/11/19 10:20:01;;;;;;;8.00;5.00;;;;;;;3.77;81.10;98832.84;79501;1301;3013647;-69
2023/11/19 10:22:30;;;;;;;9.50;5.60;;;;;;;3.72;81.35;98832.54;79199;1298;3011623;-75
2023/11/19 10:24:56;;;;;;;6.60;3.90;;;;;;;3.71;81.32;98816.48;79758;1294;3019138;-77
2023/11/19 10:27:25;;;;;;;8.90;4.50;;;;;;;4.14;80.63;98806.08;79741;1294;3011782;-74
2023/11/19 10:29:53;;;;;;;7.10;4.30;;;;;;;4.57;79.57;98803.60;78448;1298;3050353;-72
2023/11/19 10:32:20;;;;;;;7.10;4.50;;;;;;;4.73;78.55;98799.44;79652;1295;3012912;-76
2023/11/19 10:34:46;;;;;;;6.40;4.00;;;;;;;4.66;78.75;98795.73;79532;1298;3011604;-74
2023/11/19 10:37:31;;;;;;;8.00;4.60;;;;;;;4.58;78.79;98791.27;78427;1296;3026554;-72
2023/11/19 10:39:59;;;;;;;7.30;4.10;;;;;;;4.32;78.98;98781.91;78540;1295;3069153;-73
2023/11/19 10:42:26;;;;;;;7.50;4.30;;;;;;;4.16;79.82;98783.83;79498;1295;3018410;-71
2023/11/19 10:44:53;;;;;;;8.60;5.00;;;;;;;4.08;80.17;98773.25;79582;1295;3011631;-70
2023/11/19 10:47:22;;;;;;;8.30;4.30;;;;;;;3.94;80.49;98774.08;78354;1298;3026732;-70
2023/11/19 10:49:48;;;;;;;8.40;4.60;;;;;;;3.88;80.94;98769.30;79738;1301;3012735;-72
2023/11/19 10:52:18;;;;;;;7.80;4.20;;;;;;;3.84;80.92;98759.77;79511;1301;3013608;-72
2023/11/19 10:54:49;;;;;;;5.70;3.10;;;;;;;3.73;81.89;98754.72;78440;1295;3069285;-69
2023/11/19 10:57:20;;;;;;;8.60;3.80;;;;;;;4.18;81.37;98753.59;79686;1294;3011662;-71
2023/11/19 10:59:50;;;;;;;6.60;3.80;;;;;;;4.89;79.56;98742.27;78483;1296;3056118;-72
2023/11/19 11:02:19;;;;;;;6.00;3.30;;;;;;;4.78;78.43;98738.11;79750;1295;3012698;-70
2023/11/19 11:04:48;;;;;;;7.40;3.50;;;;;;;4.71;79.21;98731.34;78506;1298;3028849;-74
2023/11/19 11:07:15;;;;;;;6.80;3.90;;;;;;;4.46;79.32;98727.12;79797;1295;3013260;-70
2023/11/19 11:09:42;;;;;;;7.50;3.30;;;;;;;4.29;80.22;98723.61;80304;1298;3012993;-67
2023/11/19 11:12:11;;;;;;;5.00;3.40;;;;;;;4.18;80.72;98710.77;79063;1298;3069688;-70
2023/11/19 11:14:38;;;;;;;6.80;3.90;;;;;;;4.02;81.12;98710.27;79758;1295;3013247;-72
2023/11/19 11:17:07;;;;;;;7.30;4.10;;;;;;;3.85;81.83;98702.89;79528;1295;3011586;-68
2023/11/19 11:19:37;;;;;;;5.10;3.60;;;;;;;3.77;82.20;98704.30;78400;1295;3052643;-71
2023/11/19 11:22:04;;;;;;;6.40;4.50;;;;;;;3.69;82.94;98702.40;79715;1296;3013663;-71
2023/11/19 11:24:49;;;;;;;6.20;3.60;;;;;;;3.62;83.13;98689.05;79066;1300;3013364;-71
2023/11/19 11:27:36;;;;;;;5.60;3.10;;;;;;;4.14;83.00;98675.03;78367;1298;3052519;-70
2023/11/19 11:30:22;;;;;;;5.30;3.30;;;;;;;4.82;80.21;98673.02;78336;1298;3068694;-66